Time;durP1;ratioP1;P1;durP2;ratioP2;P2;SDS_P1;SDS_P2;PMS_P1;PMS_P2;Temp;Humidity;BMP_temperature;BMP_pressure;BME280_temperature;BME280_humidity;BME280_pressure;Samples;Min_cycle;Max_cycle;Signal;HPM_P1;HPM_P2
2021/10/08 00:00:22;;;;;;;72.25;56.23;;;;;;;9.52;81.38;102017.94;1665977;86;21132;-81
2021/10/08 00:02:50;;;;;;;74.25;56.45;;;;;;;9.48;81.41;102017.34;1665729;86;20995;-81
2021/10/08 00:05:16;;;;;;;77.42;62.75;;;;;;;9.44;81.43;102019.02;1666245;85;21059;-80
2021/10/08 00:07:42;;;;;;;76.92;58.60;;;;;;;9.40;81.48;102026.41;1657643;86;21067;-80
2021/10/08 00:10:09;;;;;;;83.12;59.88;;;;;;;9.36;81.52;102021.45;1653999;86;21093;-80
2021/10/08 00:12:35;;;;;;;65.92;49.18;;;;;;;9.32;81.55;102029.34;1654089;86;21058;-81
2021/10/08 00:15:03;;;;;;;61.70;49.93;;;;;;;9.25;81.59;102032.98;1597292;89;21082;-81
2021/10/08 00:17:29;;;;;;;70.25;52.60;;;;;;;9.21;81.63;102032.85;1597189;89;21077;-81
2021/10/08 00:19:55;;;;;;;63.70;47.93;;;;;;;9.17;81.67;102039.38;1597390;89;21631;-81
2021/10/08 00:22:21;;;;;;;61.08;44.63;;;;;;;9.13;81.69;102043.73;1597359;89;21541;-81
2021/10/08 00:24:47;;;;;;;47.03;34.27;;;;;;;9.08;81.74;102040.08;1621794;88;21131;-81
2021/10/08 00:27:13;;;;;;;47.43;34.23;;;;;;;9.02;81.75;102044.09;1597256;89;21184;-81
2021/10/08 00:29:39;;;;;;;47.70;35.83;;;;;;;8.98;81.81;102039.11;1621934;88;21034;-81
2021/10/08 00:32:05;;;;;;;49.98;33.92;;;;;;;8.94;81.85;102037.17;1597844;88;21103;-81
2021/10/08 00:34:31;;;;;;;56.08;35.17;;;;;;;8.91;81.87;102040.55;1621678;88;21062;-81
2021/10/08 00:36:57;;;;;;;53.30;35.15;;;;;;;8.86;81.90;102038.27;1597360;89;21166;-81
2021/10/08 00:39:25;;;;;;;65.90;35.98;;;;;;;8.84;81.92;102036.67;1621812;88;21064;-82
2021/10/08 00:41:52;;;;;;;51.13;35.00;;;;;;;8.80;81.93;102040.53;1597284;89;21512;-81
2021/10/08 00:44:18;;;;;;;53.75;37.50;;;;;;;8.77;81.97;102038.11;1597469;89;21035;-81
2021/10/08 00:46:44;;;;;;;51.00;34.55;;;;;;;8.73;82.02;102035.31;1597162;89;21066;-82
2021/10/08 00:49:11;;;;;;;55.17;38.85;;;;;;;8.69;82.03;102034.70;1621857;88;21168;-81
2021/10/08 00:51:37;;;;;;;56.40;39.88;;;;;;;8.65;82.09;102038.59;1597448;89;21532;-82
2021/10/08 00:54:03;;;;;;;50.95;34.58;;;;;;;8.61;82.13;102044.25;1588116;89;21543;-81
2021/10/08 00:56:29;;;;;;;51.28;34.75;;;;;;;8.52;82.17;102036.00;1596091;89;21134;-81
2021/10/08 00:58:55;;;;;;;52.20;36.28;;;;;;;8.47;82.20;102039.98;1581316;90;21560;-81
2021/10/08 01:01:21;;;;;;;56.90;40.12;;;;;;;8.42;82.24;102042.13;1596168;90;21144;-81
2021/10/08 01:03:48;;;;;;;55.00;42.23;;;;;;;8.37;82.27;102038.48;1602982;89;21036;-81
2021/10/08 01:06:14;;;;;;;63.65;42.80;;;;;;;8.34;82.30;102045.36;1603298;89;21100;-81
2021/10/08 01:08:40;;;;;;;68.87;42.88;;;;;;;8.31;82.31;102042.94;1603387;89;21048;-81
2021/10/08 01:11:06;;;;;;;71.62;41.83;;;;;;;8.28;82.35;102040.52;1603309;89;21172;-81
2021/10/08 01:13:32;;;;;;;75.12;47.53;;;;;;;8.24;82.37;102039.02;1603419;89;21206;-81
2021/10/08 01:15:58;;;;;;;74.17;46.45;;;;;;;8.20;82.39;102038.87;1603307;89;21096;-81
2021/10/08 01:18:25;;;;;;;71.00;40.75;;;;;;;8.13;82.42;102042.95;1603272;89;21099;-81
2021/10/08 01:20:52;;;;;;;59.58;40.65;;;;;;;8.09;82.46;102041.50;1603153;89;21532;-81
2021/10/08 01:23:18;;;;;;;60.95;42.95;;;;;;;8.04;82.48;102043.16;1598325;88;21093;-81
2021/10/08 01:25:44;;;;;;;74.12;54.13;;;;;;;8.00;82.52;102044.83;1597790;89;21534;-81
2021/10/08 01:28:10;;;;;;;73.00;51.63;;;;;;;7.95;82.52;102046.48;1597801;89;21494;-81
2021/10/08 01:30:36;;;;;;;67.78;44.90;;;;;;;7.86;82.54;102048.49;1639988;87;21101;-81
2021/10/08 01:33:04;;;;;;;56.92;38.45;;;;;;;7.81;82.58;102048.48;1640160;86;21097;-80
2021/10/08 01:35:30;;;;;;;55.35;37.58;;;;;;;7.79;82.64;102051.70;1639894;87;21065;-81
2021/10/08 01:37:56;;;;;;;59.93;39.00;;;;;;;7.78;82.66;102047.34;1640206;87;21642;-81
2021/10/08 01:40:22;;;;;;;50.80;33.75;;;;;;;7.74;82.68;102052.53;1639974;87;21058;-80
2021/10/08 01:42:49;;;;;;;62.67;37.48;;;;;;;7.71;82.69;102055.38;1640138;87;21025;-81
2021/10/08 01:45:15;;;;;;;56.42;36.40;;;;;;;7.69;82.73;102063.48;1639964;87;21105;-81
2021/10/08 01:47:41;;;;;;;63.45;39.38;;;;;;;7.68;82.75;102066.23;1641079;87;21030;-81
2021/10/08 01:50:08;;;;;;;92.05;54.63;;;;;;;7.66;82.82;102069.48;1581227;90;21589;-81
2021/10/08 01:52:34;;;;;;;94.87;64.35;;;;;;;7.65;82.83;102065.13;1596077;90;21506;-81
2021/10/08 01:55:01;;;;;;;79.62;57.10;;;;;;;7.60;82.85;102068.61;1593930;89;21038;-81
2021/10/08 01:57:27;;;;;;;74.58;52.03;;;;;;;7.57;82.89;102062.16;1621823;88;21034;-81
2021/10/08 01:59:53;;;;;;;84.60;54.13;;;;;;;7.53;82.92;102061.06;1597171;89;21555;-81
2021/10/08 02:02:19;;;;;;;74.40;51.15;;;;;;;7.50;82.94;102065.27;1621830;88;21946;-81
2021/10/08 02:04:47;;;;;;;76.87;51.90;;;;;;;7.48;82.96;102063.22;1597126;89;21030;-81
2021/10/08 02:07:14;;;;;;;65.60;48.95;;;;;;;7.45;83.00;102071.40;1597279;89;21046;-81
2021/10/08 02:09:40;;;;;;;77.22;52.80;;;;;;;7.42;83.01;102067.61;1597214;89;21519;-81
2021/10/08 02:12:06;;;;;;;74.30;50.12;;;;;;;7.41;83.06;102072.56;1622666;87;21094;-81
2021/10/08 02:14:32;;;;;;;64.15;45.40;;;;;;;7.37;83.07;102072.41;1600577;89;21154;-81
2021/10/08 02:16:58;;;;;;;69.58;45.83;;;;;;;7.32;83.12;102075.00;1600480;89;21059;-81
2021/10/08 02:19:24;;;;;;;72.82;43.28;;;;;;;7.26;83.12;102081.59;1600595;89;21575;-81
2021/10/08 02:21:50;;;;;;;72.95;42.03;;;;;;;7.21;83.15;102073.60;1600363;89;21499;-80
2021/10/08 02:24:16;;;;;;;62.27;39.00;;;;;;;7.17;83.20;102084.05;1600570;89;21055;-81
2021/10/08 02:26:42;;;;;;;57.62;34.48;;;;;;;7.10;83.20;102083.63;1600674;89;21188;-81
2021/10/08 02:29:09;;;;;;;58.20;36.05;;;;;;;7.06;83.23;102082.14;1600552;89;21038;-80
2021/10/08 02:31:35;;;;;;;67.42;40.85;;;;;;;7.03;83.26;102086.34;1600447;89;21035;-81
2021/10/08 02:34:02;;;;;;;58.63;34.08;;;;;;;6.99;83.29;102097.64;1600627;89;21532;-81
2021/10/08 02:36:28;;;;;;;61.37;33.25;;;;;;;6.93;83.33;102095.38;1600005;89;21089;-81
2021/10/08 02:38:54;;;;;;;47.73;30.48;;;;;;;6.92;83.35;102094.18;1654426;86;21156;-81
2021/10/08 02:41:21;;;;;;;47.85;30.20;;;;;;;6.91;83.39;102093.33;1654450;86;21032;-81
2021/10/08 02:43:47;;;;;;;50.33;30.02;;;;;;;6.91;83.40;102095.13;1654485;86;21605;-81
2021/10/08 02:46:13;;;;;;;54.83;31.40;;;;;;;6.89;83.41;102097.05;1654428;86;21158;-81
2021/10/08 02:48:39;;;;;;;53.00;30.45;;;;;;;6.86;83.42;102088.80;1654481;86;21060;-81
2021/10/08 02:51:05;;;;;;;50.43;30.88;;;;;;;6.84;83.45;102089.87;1654353;86;21084;-80
2021/10/08 02:53:32;;;;;;;47.35;30.20;;;;;;;6.82;83.50;102094.44;1654014;86;21028;-81
2021/10/08 02:55:58;;;;;;;50.85;30.52;;;;;;;6.80;83.52;102092.34;1649585;87;21067;-81
2021/10/08 02:58:24;;;;;;;53.70;33.15;;;;;;;6.78;83.53;102099.57;1649766;87;21461;-80
2021/10/08 03:00:50;;;;;;;51.75;31.62;;;;;;;6.74;83.55;102096.75;1649657;87;21060;-80
2021/10/08 03:03:16;;;;;;;50.28;32.03;;;;;;;6.70;83.58;102101.88;1647043;87;21075;-80
2021/10/08 03:05:42;;;;;;;48.78;29.57;;;;;;;6.70;83.60;102097.91;1646846;87;21011;-80
2021/10/08 03:08:08;;;;;;;49.80;30.25;;;;;;;6.67;83.62;102106.07;1646805;87;21019;-80
2021/10/08 03:10:35;;;;;;;46.40;30.15;;;;;;;6.64;83.62;102106.28;1590650;90;21082;-80
2021/10/08 03:13:01;;;;;;;49.33;30.08;;;;;;;6.63;83.66;102107.22;1610531;89;21047;-81
2021/10/08 03:15:27;;;;;;;55.05;30.02;;;;;;;6.60;83.67;102107.43;1590455;90;21111;-81
2021/10/08 03:17:53;;;;;;;48.83;30.48;;;;;;;6.58;83.71;102107.52;1610396;89;21023;-80
2021/10/08 03:20:19;;;;;;;46.18;29.95;;;;;;;6.56;83.72;102109.44;1590458;90;21063;-80
2021/10/08 03:22:46;;;;;;;43.80;29.60;;;;;;;6.54;83.75;102112.17;1590505;90;21507;-81
2021/10/08 03:25:12;;;;;;;47.53;30.68;;;;;;;6.51;83.77;102113.70;1590609;90;21103;-80
2021/10/08 03:27:39;;;;;;;48.70;31.20;;;;;;;6.50;83.81;102116.01;1590570;90;21108;-80
2021/10/08 03:30:08;;;;;;;58.75;30.60;;;;;;;6.48;83.84;102111.73;1622660;87;21028;-80
2021/10/08 03:32:34;;;;;;;50.08;29.85;;;;;;;6.45;83.87;102108.83;1649710;87;21057;-80
2021/10/08 03:35:00;;;;;;;49.33;31.68;;;;;;;6.42;83.90;102109.50;1649681;87;21111;-81
2021/10/08 03:37:35;;;;;;;52.13;33.75;;;;;;;6.39;83.92;102107.91;1649669;86;21046;-81
2021/10/08 03:39:54;;;;;;;51.18;32.80;;;;;;;6.36;83.94;102116.54;1648352;87;21265;-82
2021/10/08 03:42:21;;;;;;;57.50;33.92;;;;;;;6.32;83.97;102114.56;1649629;87;21016;-81
2021/10/08 03:44:57;;;;;;;59.05;38.70;;;;;;;6.30;84.00;102117.77;1648311;86;21022;-80
2021/10/08 03:47:25;;;;;;;56.48;37.48;;;;;;;6.28;84.01;102113.06;1648033;87;21035;-80
2021/10/08 03:49:51;;;;;;;59.45;38.28;;;;;;;6.24;84.05;102114.20;1648148;87;21515;-80
2021/10/08 03:52:17;;;;;;;66.40;39.23;;;;;;;6.22;84.07;102115.27;1648665;87;21167;-80
2021/10/08 03:54:43;;;;;;;52.90;36.83;;;;;;;6.19;84.08;102121.62;1647881;87;21547;-80
2021/10/08 03:57:09;;;;;;;60.78;36.40;;;;;;;6.16;84.11;102119.14;1645833;87;21503;-80
2021/10/08 03:59:35;;;;;;;59.15;35.88;;;;;;;6.15;84.13;102127.20;1645619;87;21010;-81
2021/10/08 04:02:02;;;;;;;59.77;37.98;;;;;;;6.11;84.13;102123.91;1645553;86;21488;-81
2021/10/08 04:04:28;;;;;;;59.40;36.03;;;;;;;6.07;84.16;102123.72;1646598;87;21946;-81
2021/10/08 04:06:54;;;;;;;57.83;34.53;;;;;;;6.03;84.19;102124.86;1651200;85;21070;-80
2021/10/08 04:09:20;;;;;;;54.45;33.28;;;;;;;5.99;84.21;102120.23;1651162;86;21022;-80
2021/10/08 04:11:46;;;;;;;54.70;31.80;;;;;;;5.95;84.25;102120.52;1651386;87;21074;-81
2021/10/08 04:14:12;;;;;;;63.78;32.78;;;;;;;5.90;84.26;102115.55;1651309;86;21022;-80
2021/10/08 04:16:39;;;;;;;57.30;32.28;;;;;;;5.87;84.27;102115.75;1647908;86;21673;-80
2021/10/08 04:19:05;;;;;;;51.20;32.33;;;;;;;5.83;84.26;102113.34;1646667;87;21476;-81
2021/10/08 04:21:31;;;;;;;54.63;31.40;;;;;;;5.77;84.30;102119.04;1616796;88;21054;-80
2021/10/08 04:23:57;;;;;;;46.50;29.32;;;;;;;5.71;84.32;102119.41;1613406;88;21140;-80
2021/10/08 04:26:23;;;;;;;62.40;30.45;;;;;;;5.66;84.30;102121.50;1586388;90;21059;-80
2021/10/08 04:28:49;;;;;;;52.55;31.17;;;;;;;5.62;84.35;102122.64;1586518;90;21165;-80
2021/10/08 04:31:15;;;;;;;50.50;30.55;;;;;;;5.57;84.36;102122.91;1604407;89;21036;-80
2021/10/08 04:33:41;;;;;;;58.70;31.82;;;;;;;5.54;84.39;102126.61;1586786;90;21525;-80
2021/10/08 04:36:07;;;;;;;56.18;31.40;;;;;;;5.50;84.40;102126.42;1619342;87;21075;-79
2021/10/08 04:38:34;;;;;;;52.10;29.55;;;;;;;5.48;84.43;102130.97;1646674;87;21567;-80
2021/10/08 04:41:00;;;;;;;55.52;30.50;;;;;;;5.48;84.45;102136.27;1645929;86;21782;-80
2021/10/08 04:43:26;;;;;;;59.42;30.82;;;;;;;5.48;84.45;102140.70;1614457;88;21080;-81
2021/10/08 04:45:52;;;;;;;50.17;28.62;;;;;;;5.49;84.49;102141.91;1646618;86;21043;-80
2021/10/08 04:48:18;;;;;;;52.50;29.50;;;;;;;5.50;84.51;102145.41;1646726;87;21075;-80
2021/10/08 04:50:44;;;;;;;53.23;31.17;;;;;;;5.50;84.50;102142.30;1646680;87;21551;-80
2021/10/08 04:53:19;;;;;;;46.13;29.02;;;;;;;5.52;84.52;102143.54;1643263;87;21994;-79
2021/10/08 04:55:45;;;;;;;46.77;28.12;;;;;;;5.53;84.51;102147.86;1591013;90;21574;-80
2021/10/08 04:58:11;;;;;;;52.98;28.60;;;;;;;5.51;84.54;102145.80;1648533;87;21070;-80
2021/10/08 05:00:37;;;;;;;54.83;29.27;;;;;;;5.50;84.59;102146.27;1648498;87;20927;-80
2021/10/08 05:03:10;;;;;;;52.58;27.60;;;;;;;5.48;84.60;102153.45;1633705;87;21511;-80
2021/10/08 05:05:36;;;;;;;50.45;28.17;;;;;;;5.48;84.62;102156.57;1632902;87;21761;-80
2021/10/08 05:08:03;;;;;;;54.45;28.25;;;;;;;5.47;84.65;102154.86;1646880;87;21003;-80
2021/10/08 05:10:29;;;;;;;55.10;30.65;;;;;;;5.45;84.68;102160.73;1590673;90;21091;-80
2021/10/08 05:12:55;;;;;;;47.83;28.67;;;;;;;5.43;84.69;102167.43;1607491;88;21043;-80
2021/10/08 05:15:22;;;;;;;49.93;25.97;;;;;;;5.43;84.72;102171.39;1642215;87;21043;-80
2021/10/08 05:17:48;;;;;;;52.05;27.13;;;;;;;5.45;84.72;102167.34;1642415;87;21161;-80
2021/10/08 05:20:14;;;;;;;55.23;28.27;;;;;;;5.45;84.74;102178.75;1644035;87;21030;-80
2021/10/08 05:22:40;;;;;;;53.15;27.55;;;;;;;5.46;84.75;102174.31;1648706;86;21024;-79
2021/10/08 05:25:06;;;;;;;52.33;27.67;;;;;;;5.47;84.77;102178.20;1661463;85;21030;-79
2021/10/08 05:27:32;;;;;;;55.40;29.23;;;;;;;5.48;84.77;102186.53;1654845;85;21042;-80
2021/10/08 05:29:58;;;;;;;49.38;29.15;;;;;;;5.49;84.78;102188.21;1648227;87;21102;-80
2021/10/08 05:32:24;;;;;;;70.03;43.75;;;;;;;5.51;84.76;102199.57;1647463;87;21110;-80
2021/10/08 05:34:50;;;;;;;76.70;44.77;;;;;;;5.51;84.80;102203.54;1647242;87;21033;-80
2021/10/08 05:37:16;;;;;;;81.12;46.40;;;;;;;5.52;84.79;102207.05;1591636;90;21527;-80
2021/10/08 05:39:44;;;;;;;68.17;45.80;;;;;;;5.51;84.79;102206.66;1648708;87;21034;-80
2021/10/08 05:42:10;;;;;;;62.60;42.20;;;;;;;5.51;84.82;102213.27;1648832;86;21047;-74
2021/10/08 05:44:36;;;;;;;65.20;39.00;;;;;;;5.53;84.82;102212.22;1646259;87;21032;-79
2021/10/08 05:47:02;;;;;;;58.40;35.80;;;;;;;5.54;84.81;102211.28;1648121;87;21074;-80
2021/10/08 05:49:28;;;;;;;61.18;35.68;;;;;;;5.57;84.82;102213.36;1647012;87;21030;-75
2021/10/08 05:51:55;;;;;;;60.00;39.42;;;;;;;5.58;84.83;102214.59;1592058;90;21097;-75
2021/10/08 05:54:21;;;;;;;60.83;37.67;;;;;;;5.63;84.83;102211.69;1610056;88;21079;-75
2021/10/08 05:56:47;;;;;;;64.47;37.60;;;;;;;5.68;84.82;102206.94;1581512;89;21019;-76
2021/10/08 05:59:13;;;;;;;69.90;38.65;;;;;;;5.72;84.81;102213.75;1610795;89;21525;-75
2021/10/08 06:01:39;;;;;;;72.78;43.35;;;;;;;5.82;84.80;102217.53;1616704;87;21004;-76
2021/10/08 06:04:06;;;;;;;67.97;36.33;;;;;;;6.01;84.76;102215.48;1610510;89;21589;-75
2021/10/08 06:06:33;;;;;;;60.50;33.18;;;;;;;6.25;84.74;102213.08;1565725;89;21075;-75
2021/10/08 06:08:59;;;;;;;62.30;30.08;;;;;;;6.48;84.70;102217.74;1610656;88;21032;-75
2021/10/08 06:11:25;;;;;;;55.75;31.00;;;;;;;6.71;84.72;102225.55;1610217;89;21508;-75
2021/10/08 06:13:51;;;;;;;62.55;31.42;;;;;;;6.95;84.73;102227.90;1610580;89;21494;-75
2021/10/08 06:16:17;;;;;;;50.98;27.40;;;;;;;7.19;84.74;102230.23;1611596;87;21067;-76
2021/10/08 06:18:43;;;;;;;44.93;24.80;;;;;;;7.37;84.72;102240.08;1584043;90;21357;-76
2021/10/08 06:21:09;;;;;;;42.38;26.20;;;;;;;7.45;84.76;102239.95;1591772;89;21096;-76
2021/10/08 06:23:35;;;;;;;47.40;24.32;;;;;;;7.53;84.80;102233.62;1602885;88;21077;-76
2021/10/08 06:26:01;;;;;;;37.00;21.62;;;;;;;7.57;84.75;102244.02;1591195;90;21064;-76
2021/10/08 06:28:27;;;;;;;44.98;21.87;;;;;;;7.66;84.72;102239.42;1593883;88;21531;-75
2021/10/08 06:30:53;;;;;;;44.20;21.23;;;;;;;7.73;84.65;102246.01;1591472;89;21952;-76
2021/10/08 06:33:19;;;;;;;42.23;20.05;;;;;;;7.82;84.62;102240.90;1589384;88;21049;-82
2021/10/08 06:35:46;;;;;;;35.75;20.05;;;;;;;7.95;84.56;102250.20;1597741;88;21029;-82
2021/10/08 06:38:13;;;;;;;40.33;20.12;;;;;;;8.06;84.45;102250.27;1598166;88;21090;-83
2021/10/08 06:40:39;;;;;;;42.65;19.82;;;;;;;8.15;84.35;102257.61;1600815;88;21111;-82
2021/10/08 06:43:05;;;;;;;36.25;20.02;;;;;;;8.17;84.23;102258.34;1597047;88;21963;-81
2021/10/08 06:45:31;;;;;;;37.53;18.95;;;;;;;8.17;84.13;102254.36;1595239;88;21051;-81
2021/10/08 06:47:57;;;;;;;37.30;19.45;;;;;;;8.24;84.00;102256.95;1594829;88;21038;-82
2021/10/08 06:50:23;;;;;;;36.77;18.73;;;;;;;8.31;83.86;102260.90;1598362;88;21085;-81
2021/10/08 06:52:49;;;;;;;33.85;19.10;;;;;;;8.39;83.72;102267.85;1598318;88;21405;-81
2021/10/08 06:55:15;;;;;;;36.05;18.50;;;;;;;8.49;83.58;102272.02;1596822;87;21169;-82
2021/10/08 06:57:41;;;;;;;34.63;17.82;;;;;;;8.66;83.47;102274.78;1616745;87;21088;-82
2021/10/08 07:00:08;;;;;;;39.27;20.48;;;;;;;8.74;83.30;102279.07;1653925;85;21089;-81
2021/10/08 07:02:47;;;;;;;31.42;17.60;;;;;;;8.81;83.16;102285.16;1655054;85;37986;-83
2021/10/08 07:05:13;;;;;;;34.58;17.92;;;;;;;9.02;83.00;102284.92;1652289;85;21526;-83
2021/10/08 07:07:39;;;;;;;34.73;20.15;;;;;;;9.26;82.84;102284.89;1655096;85;22162;-83
2021/10/08 07:10:06;;;;;;;45.73;19.85;;;;;;;9.36;82.68;102276.58;1658033;85;21042;-83
2021/10/08 07:12:32;;;;;;;38.78;19.80;;;;;;;9.51;82.52;102282.08;1598810;88;21064;-83
2021/10/08 07:15:01;;;;;;;34.03;17.98;;;;;;;9.69;82.36;102285.62;1657878;85;21082;-83
2021/10/08 07:17:26;;;;;;;34.05;17.52;;;;;;;9.65;82.12;102290.81;1657062;85;21125;-83
2021/10/08 07:19:53;;;;;;;36.65;19.00;;;;;;;9.68;81.97;102293.24;1652501;85;21119;-81
2021/10/08 07:22:19;;;;;;;30.05;18.52;;;;;;;9.71;81.77;102294.37;1650389;85;21530;-83
2021/10/08 07:24:45;;;;;;;30.43;17.82;;;;;;;9.82;81.55;102293.03;1648293;87;21661;-82
2021/10/08 07:27:11;;;;;;;36.35;18.25;;;;;;;9.94;81.37;102296.09;1645708;87;21094;-83
2021/10/08 07:29:37;;;;;;;33.75;17.50;;;;;;;10.06;81.17;102303.14;1590407;90;21070;-84
2021/10/08 07:32:05;;;;;;;37.38;17.55;;;;;;;10.09;80.96;102310.05;1648931;87;21185;-84
2021/10/08 07:34:31;;;;;;;34.43;17.42;;;;;;;10.02;80.71;102307.86;1647134;87;21514;-83
2021/10/08 07:36:57;;;;;;;35.85;16.80;;;;;;;9.91;80.41;102305.66;1646439;87;21010;-84
2021/10/08 07:39:23;;;;;;;35.52;16.62;;;;;;;9.96;80.27;102304.80;1659130;86;21699;-83
2021/10/08 07:41:49;;;;;;;34.80;17.77;;;;;;;10.07;80.05;102308.81;1655944;86;21038;-83
2021/10/08 07:44:16;;;;;;;40.48;17.52;;;;;;;10.15;79.82;102311.77;1648581;87;21178;-83
2021/10/08 07:46:42;;;;;;;34.67;16.80;;;;;;;10.17;79.57;102304.48;1648506;87;21065;-83
2021/10/08 07:49:08;;;;;;;36.75;16.45;;;;;;;10.22;79.35;102302.32;1591111;90;21078;-87
2021/10/08 07:51:34;;;;;;;32.65;16.35;;;;;;;10.22;79.15;102302.80;1592123;90;21103;-82
2021/10/08 07:54:00;;;;;;;29.60;14.87;;;;;;;10.36;78.98;102292.75;1621007;88;21055;-82
2021/10/08 07:56:26;;;;;;;36.73;15.75;;;;;;;10.42;78.65;102296.25;1644153;86;21151;-81
2021/10/08 07:58:52;;;;;;;28.05;15.25;;;;;;;10.35;78.43;102303.04;1652431;86;21086;-81
2021/10/08 08:01:18;;;;;;;41.37;16.07;;;;;;;10.43;78.25;102305.95;1652122;85;21085;-81
2021/10/08 08:03:44;;;;;;;30.02;15.10;;;;;;;10.51;78.00;102304.87;1653282;86;21018;-82
2021/10/08 08:06:11;;;;;;;27.95;15.60;;;;;;;10.52;77.72;102312.36;1653106;86;21604;-82
2021/10/08 08:08:37;;;;;;;26.55;14.58;;;;;;;10.58;77.49;102304.37;1627563;86;21154;-81
2021/10/08 08:11:03;;;;;;;39.27;14.68;;;;;;;10.65;77.24;102306.91;1652966;86;21462;-80
2021/10/08 08:13:29;;;;;;;30.48;15.40;;;;;;;10.64;76.99;102303.86;1652992;86;21115;-83
2021/10/08 08:15:55;;;;;;;31.42;14.85;;;;;;;10.66;76.75;102305.94;1653087;86;21086;-83
2021/10/08 08:18:21;;;;;;;35.90;13.48;;;;;;;10.80;76.51;102304.34;1597787;89;21046;-82
2021/10/08 08:20:47;;;;;;;28.77;13.70;;;;;;;10.87;76.27;102304.20;1622605;87;22026;-82
2021/10/08 08:23:13;;;;;;;30.90;14.58;;;;;;;10.89;76.02;102303.58;1604332;88;21606;-83
2021/10/08 08:25:40;;;;;;;31.07;13.20;;;;;;;10.98;75.75;102302.81;1652510;86;21045;-81
2021/10/08 08:28:06;;;;;;;30.72;13.43;;;;;;;10.99;75.44;102305.84;1654054;85;21045;-82
2021/10/08 08:30:36;;;;;;;30.10;13.78;;;;;;;11.00;75.20;102308.89;1654661;85;21089;-84
2021/10/08 08:32:59;;;;;;;26.73;13.48;;;;;;;11.08;74.96;102298.44;1652813;86;22115;-83
2021/10/08 08:35:25;;;;;;;32.73;13.32;;;;;;;11.18;74.68;102302.52;1653213;86;21563;-83
2021/10/08 08:37:52;;;;;;;27.85;13.65;;;;;;;11.32;74.47;102300.41;1654881;85;21072;-83
2021/10/08 08:40:18;;;;;;;39.33;14.07;;;;;;;11.38;74.20;102297.20;1660914;85;21030;-83
2021/10/08 08:42:44;;;;;;;44.93;14.60;;;;;;;11.39;73.83;102294.05;1653916;85;21516;-84
2021/10/08 08:45:10;;;;;;;34.00;14.03;;;;;;;11.46;73.59;102285.40;1652598;85;21876;-83
2021/10/08 08:47:36;;;;;;;23.52;12.68;;;;;;;11.59;73.38;102289.69;1652511;86;21598;-83
2021/10/08 08:50:04;;;;;;;27.80;13.88;;;;;;;11.61;73.15;102284.56;1652904;85;21506;-83
2021/10/08 08:52:30;;;;;;;18.12;11.10;;;;;;;11.72;73.00;102291.21;1659490;85;21022;-83
2021/10/08 08:54:56;;;;;;;23.47;10.95;;;;;;;11.80;72.75;102294.57;1654086;85;21155;-82
2021/10/08 08:57:22;;;;;;;25.80;11.38;;;;;;;11.72;72.28;102296.55;1648741;85;21086;-83
2021/10/08 09:00:00;;;;;;;20.92;11.57;;;;;;;11.74;71.92;102285.27;1645319;86;21057;-82
2021/10/08 09:02:27;;;;;;;28.05;11.40;;;;;;;11.85;71.70;102285.68;1646371;85;21087;-83
2021/10/08 09:04:54;;;;;;;21.68;12.03;;;;;;;11.91;71.43;102286.48;1646745;85;21100;-83
2021/10/08 09:07:21;;;;;;;19.65;10.72;;;;;;;11.93;71.11;102292.53;1644302;87;21054;-79
2021/10/08 09:09:46;;;;;;;27.55;11.22;;;;;;;11.93;70.83;102292.53;1645496;85;21160;-78
2021/10/08 09:12:12;;;;;;;24.85;11.75;;;;;;;11.94;70.55;102290.22;1644524;85;21880;-78
2021/10/08 09:14:38;;;;;;;24.95;11.12;;;;;;;11.92;70.07;102286.84;1617223;87;21549;-78
2021/10/08 09:17:17;;;;;;;25.75;11.10;;;;;;;11.92;69.72;102286.84;1645411;87;21526;-78
2021/10/08 09:20:01;;;;;;;22.67;10.60;;;;;;;12.06;69.52;102289.66;1645712;86;21557;-78
2021/10/08 09:22:41;;;;;;;20.82;10.23;;;;;;;12.05;69.13;102287.95;1619933;88;21542;-78
2021/10/08 09:25:22;;;;;;;;;;;;;;;12.16;68.93;102286.05;1639540;87;21561;-78
2021/10/08 09:27:54;;;;;;;19.45;9.70;;;;;;;12.26;68.74;102273.56;1647796;85;20171;-79
2021/10/08 09:30:20;;;;;;;25.17;10.53;;;;;;;12.28;68.40;102278.27;1650515;86;21026;-79
2021/10/08 09:32:51;;;;;;;23.77;9.95;;;;;;;12.32;68.10;102272.16;1623702;86;21111;-78
2021/10/08 09:35:20;;;;;;;20.68;10.00;;;;;;;12.24;67.37;102275.53;1645099;85;21163;-78
2021/10/08 09:38:10;;;;;;;19.95;9.28;;;;;;;12.15;66.71;102284.34;1644918;87;21041;-79
2021/10/08 09:40:47;;;;;;;21.90;10.43;;;;;;;12.20;66.40;102278.13;1645823;85;21070;-78
2021/10/08 09:43:29;;;;;;;21.60;9.55;;;;;;;12.20;65.80;102279.45;1645491;87;21050;-78
2021/10/08 09:45:57;;;;;;;20.50;8.78;;;;;;;12.20;65.49;102274.11;1645788;87;21539;-78
2021/10/08 09:48:41;;;;;;;22.13;8.70;;;;;;;12.16;64.86;102276.69;1645826;87;21117;-78
2021/10/08 09:51:12;;;;;;;25.75;9.55;;;;;;;12.11;64.48;102270.87;1645994;85;21043;-79
2021/10/08 09:53:52;;;;;;;20.37;9.60;;;;;;;12.24;64.40;102274.20;1585836;90;21526;-79
2021/10/08 09:56:41;;;;;;;30.10;9.75;;;;;;;12.27;64.11;102274.41;1584620;90;21031;-78
2021/10/08 09:59:11;;;;;;;20.70;10.13;;;;;;;12.30;63.71;102275.48;1596187;90;21063;-78
2021/10/08 10:01:39;;;;;;;27.58;10.58;;;;;;;12.33;63.40;102272.03;1603425;89;21991;-79
2021/10/08 10:04:08;;;;;;;21.70;8.28;;;;;;;12.36;63.29;102277.11;1603343;89;21546;-79
2021/10/08 10:06:34;;;;;;;18.55;7.12;;;;;;;12.40;63.05;102263.83;1603283;89;21075;-78
2021/10/08 10:09:02;;;;;;;16.62;6.25;;;;;;;12.37;62.31;102258.75;1581126;89;21063;-78
2021/10/08 10:11:28;;;;;;;26.73;7.40;;;;;;;12.44;61.98;102278.63;1596037;90;21035;-78
2021/10/08 10:13:57;;;;;;;28.52;7.78;;;;;;;12.44;60.94;102268.41;1603420;89;21176;-78
2021/10/08 10:16:24;;;;;;;17.50;6.97;;;;;;;12.41;60.17;102261.52;1601840;89;21048;-78
2021/10/08 10:18:55;;;;;;;18.00;7.40;;;;;;;12.44;59.69;102263.91;1579241;90;21069;-78
2021/10/08 10:21:23;;;;;;;18.67;7.17;;;;;;;12.55;59.50;102270.13;1579176;90;21126;-78
2021/10/08 10:23:53;;;;;;;13.38;6.58;;;;;;;12.55;59.15;102254.92;1579443;90;21093;-78
2021/10/08 10:26:24;;;;;;;19.87;8.25;;;;;;;12.61;58.79;102262.40;1592359;90;22137;-78
2021/10/08 10:28:51;;;;;;;23.47;7.87;;;;;;;12.57;58.22;102254.77;1592019;90;21611;-78
2021/10/08 10:31:17;;;;;;;23.62;7.53;;;;;;;12.58;57.99;102251.12;1591901;90;21075;-83
2021/10/08 10:33:43;;;;;;;28.07;11.22;;;;;;;12.65;58.02;102244.23;1593431;89;21119;-83
2021/10/08 10:36:24;;;;;;;17.40;9.90;;;;;;;12.69;57.87;102240.30;1619377;88;21023;-83
2021/10/08 10:38:50;;;;;;;17.75;7.67;;;;;;;12.74;57.71;102246.06;1620769;87;21185;-83
2021/10/08 10:41:20;;;;;;;27.48;9.08;;;;;;;12.78;57.60;102250.16;1597142;88;21600;-83
2021/10/08 10:43:55;;;;;;;15.05;6.40;;;;;;;12.82;57.29;102236.86;1592083;89;21111;-84
2021/10/08 10:52:02;;;;;;;13.62;7.42;;;;;;;12.76;56.54;102245.45;1592124;90;21767;-83
2021/10/08 10:54:52;;;;;;;14.30;5.65;;;;;;;12.78;55.97;102239.45;1592038;90;21543;-83
2021/10/08 10:57:29;;;;;;;17.02;6.25;;;;;;;12.81;55.72;102241.84;1597180;88;21178;-84
2021/10/08 10:59:51;;;;;;;25.32;6.92;;;;;;;12.86;55.39;102238.27;1602652;89;21088;-84
2021/10/08 11:02:23;;;;;;;21.50;6.53;;;;;;;12.89;55.16;102236.65;1641590;87;21095;-84
2021/10/08 11:04:55;;;;;;;18.45;7.33;;;;;;;12.94;55.22;102239.77;1580885;90;21567;-84
2021/10/08 11:07:23;;;;;;;22.07;7.08;;;;;;;13.01;55.10;102246.25;1592026;89;21050;-83
2021/10/08 11:10:07;;;;;;;13.35;6.95;;;;;;;13.00;55.01;102243.22;1596568;89;21116;-84
2021/10/08 11:12:41;;;;;;;22.40;6.37;;;;;;;12.98;54.82;102249.22;1584092;90;21047;-82
2021/10/08 11:15:21;;;;;;;18.50;6.12;;;;;;;12.99;54.55;102249.55;1584038;90;21039;-84
2021/10/08 11:17:55;;;;;;;13.18;5.83;;;;;;;12.99;54.45;102242.85;1583782;90;22062;-83
2021/10/08 11:20:43;;;;;;;19.10;6.62;;;;;;;13.02;54.32;102239.89;1583826;90;21103;-83
2021/10/08 11:23:24;;;;;;;21.07;6.22;;;;;;;13.05;54.14;102246.82;1584011;90;21115;-83